sensor_id;sensor_type;location;lat;lon;timestamp;pressure;altitude;pressure_sealevel;temperature;humidity
13314;BME280;6725;48.112;11.604;2022-08-01T00:01:43;95229.56;;;22.68;100.00
13314;BME280;6725;48.112;11.604;2022-08-01T00:04:08;95227.84;;;22.71;100.00
13314;BME280;6725;48.112;11.604;2022-08-01T00:06:34;95230.91;;;22.73;100.00
13314;BME280;6725;48.112;11.604;2022-08-01T00:08:59;95231.88;;;22.70;100.00
13314;BME280;6725;48.112;11.604;2022-08-01T00:11:24;95225.06;;;22.71;100.00
13314;BME280;6725;48.112;11.604;2022-08-01T00:13:50;95221.84;;;22.78;100.00
13314;BME280;6725;48.112;11.604;2022-08-01T00:16:15;95230.50;;;22.80;100.00
13314;BME280;6725;48.112;11.604;2022-08-01T00:18:41;95226.47;;;22.81;100.00
13314;BME280;6725;48.112;11.604;2022-08-01T00:21:06;95230.50;;;22.80;100.00
13314;BME280;6725;48.112;11.604;2022-08-01T00:23:32;95234.03;;;22.80;100.00
13314;BME280;6725;48.112;11.604;2022-08-01T00:25:57;95233.22;;;22.74;100.00
13314;BME280;6725;48.112;11.604;2022-08-01T00:28:22;95229.38;;;22.72;100.00
13314;BME280;6725;48.112;11.604;2022-08-01T00:30:48;95235.63;;;22.67;100.00
13314;BME280;6725;48.112;11.604;2022-08-01T00:33:13;95229.22;;;22.61;100.00
13314;BME280;6725;48.112;11.604;2022-08-01T00:35:39;95235.78;;;22.58;100.00
13314;BME280;6725;48.112;11.604;2022-08-01T00:38:04;95240.47;;;22.52;100.00
13314;BME280;6725;48.112;11.604;2022-08-01T00:40:29;95242.69;;;22.48;100.00
13314;BME280;6725;48.112;11.604;2022-08-01T00:42:55;95237.81;;;22.42;100.00
13314;BME280;6725;48.112;11.604;2022-08-01T00:45:20;95247.13;;;22.39;100.00
13314;BME280;6725;48.112;11.604;2022-08-01T00:47:45;95242.50;;;22.36;100.00
13314;BME280;6725;48.112;11.604;2022-08-01T00:50:12;95243.47;;;22.33;100.00
13314;BME280;6725;48.112;11.604;2022-08-01T00:52:38;95239.84;;;22.27;100.00
13314;BME280;6725;48.112;11.604;2022-08-01T00:55:05;95240.81;;;22.24;100.00
13314;BME280;6725;48.112;11.604;2022-08-01T00:57:30;95243.28;;;22.22;100.00
13314;BME280;6725;48.112;11.604;2022-08-01T00:59:56;95239.13;;;22.12;100.00
13314;BME280;6725;48.112;11.604;2022-08-01T01:02:21;95247.16;;;22.10;100.00
13314;BME280;6725;48.112;11.604;2022-08-01T01:04:46;95240.72;;;22.04;100.00
13314;BME280;6725;48.112;11.604;2022-08-01T01:07:19;95246.97;;;21.99;100.00
13314;BME280;6725;48.112;11.604;2022-08-01T01:10:00;95243.91;;;21.97;100.00
13314;BME280;6725;48.112;11.604;2022-08-01T01:15:09;95256.41;;;21.87;100.00
13314;BME280;6725;48.112;11.604;2022-08-01T01:17:40;95251.41;;;21.91;100.00
13314;BME280;6725;48.112;11.604;2022-08-01T01:20:08;95239.69;;;21.73;100.00
13314;BME280;6725;48.112;11.604;2022-08-01T01:25:40;95253.13;;;21.74;100.00
13314;BME280;6725;48.112;11.604;2022-08-01T01:28:27;95251.94;;;21.66;100.00
13314;BME280;6725;48.112;11.604;2022-08-01T01:30:56;95251.38;;;21.62;100.00
13314;BME280;6725;48.112;11.604;2022-08-01T01:33:23;95249.72;;;21.56;100.00
13314;BME280;6725;48.112;11.604;2022-08-01T01:35:52;95260.06;;;21.55;100.00
13314;BME280;6725;48.112;11.604;2022-08-01T01:38:29;95259.50;;;21.51;100.00
13314;BME280;6725;48.112;11.604;2022-08-01T01:40:57;95252.69;;;21.52;100.00
13314;BME280;6725;48.112;11.604;2022-08-01T01:43:24;95260.56;;;21.54;100.00
13314;BME280;6725;48.112;11.604;2022-08-01T01:45:52;95263.81;;;21.52;100.00
13314;BME280;6725;48.112;11.604;2022-08-01T01:48:20;95257.88;;;21.45;100.00
13314;BME280;6725;48.112;11.604;2022-08-01T01:50:48;95262.66;;;21.44;100.00
13314;BME280;6725;48.112;11.604;2022-08-01T01:53:16;95258.03;;;21.41;100.00
13314;BME280;6725;48.112;11.604;2022-08-01T01:55:44;95260.72;;;21.36;100.00
13314;BME280;6725;48.112;11.604;2022-08-01T01:58:13;95260.91;;;21.32;100.00
13314;BME280;6725;48.112;11.604;2022-08-01T02:00:41;95259.34;;;21.31;100.00
13314;BME280;6725;48.112;11.604;2022-08-01T02:03:09;95265.78;;;21.37;100.00
13314;BME280;6725;48.112;11.604;2022-08-01T02:05:35;95255.94;;;21.36;100.00
13314;BME280;6725;48.112;11.604;2022-08-01T02:08:03;95260.16;;;21.46;100.00
13314;BME280;6725;48.112;11.604;2022-08-01T02:10:30;95262.28;;;21.51;100.00
13314;BME280;6725;48.112;11.604;2022-08-01T02:12:57;95262.44;;;21.48;100.00
13314;BME280;6725;48.112;11.604;2022-08-01T02:15:26;95267.06;;;21.51;100.00
13314;BME280;6725;48.112;11.604;2022-08-01T02:17:54;95270.63;;;21.51;100.00
13314;BME280;6725;48.112;11.604;2022-08-01T02:20:21;95272.16;;;21.52;100.00
13314;BME280;6725;48.112;11.604;2022-08-01T02:22:50;95267.72;;;21.46;100.00
13314;BME280;6725;48.112;11.604;2022-08-01T02:25:31;95269.72;;;21.45;100.00
13314;BME280;6725;48.112;11.604;2022-08-01T02:28:00;95273.75;;;21.44;100.00
13314;BME280;6725;48.112;11.604;2022-08-01T02:30:34;95272.81;;;21.47;100.00
13314;BME280;6725;48.112;11.604;2022-08-01T02:33:12;95280.09;;;21.45;100.00
13314;BME280;6725;48.112;11.604;2022-08-01T02:35:42;95276.25;;;21.42;100.00
13314;BME280;6725;48.112;11.604;2022-08-01T02:38:12;95277.97;;;21.40;100.00
13314;BME280;6725;48.112;11.604;2022-08-01T02:40:41;95284.47;;;21.37;100.00
13314;BME280;6725;48.112;11.604;2022-08-01T02:43:09;95276.22;;;21.28;100.00
13314;BME280;6725;48.112;11.604;2022-08-01T02:45:39;95289.44;;;21.33;100.00
13314;BME280;6725;48.112;11.604;2022-08-01T02:48:13;95289.63;;;21.29;100.00
13314;BME280;6725;48.112;11.604;2022-08-01T02:50:42;95283.97;;;21.24;100.00
13314;BME280;6725;48.112;11.604;2022-08-01T02:53:09;95285.69;;;21.21;100.00
13314;BME280;6725;48.112;11.604;2022-08-01T02:55:39;95286.91;;;21.20;100.00
13314;BME280;6725;48.112;11.604;2022-08-01T02:58:06;95282.97;;;21.12;100.00
13314;BME280;6725;48.112;11.604;2022-08-01T03:00:34;95293.50;;;21.08;100.00
13314;BME280;6725;48.112;11.604;2022-08-01T03:03:01;95292.91;;;21.04;100.00
13314;BME280;6725;48.112;11.604;2022-08-01T03:05:28;95292.13;;;21.04;100.00
13314;BME280;6725;48.112;11.604;2022-08-01T03:07:55;95290.78;;;20.99;100.00
13314;BME280;6725;48.112;11.604;2022-08-01T03:10:23;95288.38;;;20.92;100.00
13314;BME280;6725;48.112;11.604;2022-08-01T03:12:50;95294.84;;;20.89;100.00
13314;BME280;6725;48.112;11.604;2022-08-01T03:15:17;95288.69;;;20.85;100.00
13314;BME280;6725;48.112;11.604;2022-08-01T03:17:45;95292.41;;;20.82;100.00
13314;BME280;6725;48.112;11.604;2022-08-01T03:20:14;95294.88;;;20.80;100.00
13314;BME280;6725;48.112;11.604;2022-08-01T03:22:42;95301.66;;;20.79;100.00
13314;BME280;6725;48.112;11.604;2022-08-01T03:25:09;95302.59;;;20.76;100.00
13314;BME280;6725;48.112;11.604;2022-08-01T03:27:36;95299.53;;;20.74;100.00
13314;BME280;6725;48.112;11.604;2022-08-01T03:30:04;95302.59;;;20.76;100.00
13314;BME280;6725;48.112;11.604;2022-08-01T03:32:30;95308.16;;;20.76;100.00
13314;BME280;6725;48.112;11.604;2022-08-01T03:34:57;95299.19;;;20.81;100.00
13314;BME280;6725;48.112;11.604;2022-08-01T03:37:28;95308.28;;;20.82;100.00
13314;BME280;6725;48.112;11.604;2022-08-01T03:40:04;95307.81;;;20.83;100.00
13314;BME280;6725;48.112;11.604;2022-08-01T03:42:34;95307.81;;;20.83;100.00
13314;BME280;6725;48.112;11.604;2022-08-01T03:45:04;95312.78;;;20.79;100.00
13314;BME280;6725;48.112;11.604;2022-08-01T03:47:33;95314.03;;;20.78;100.00
13314;BME280;6725;48.112;11.604;2022-08-01T03:50:01;95312.78;;;20.79;100.00
13314;BME280;6725;48.112;11.604;2022-08-01T03:52:28;95319.56;;;20.78;100.00
13314;BME280;6725;48.112;11.604;2022-08-01T03:54:56;95320.50;;;20.75;100.00
13314;BME280;6725;48.112;11.604;2022-08-01T03:57:23;95331.16;;;20.77;100.00
13314;BME280;6725;48.112;11.604;2022-08-01T03:59:51;95330.69;;;20.78;100.00
13314;BME280;6725;48.112;11.604;2022-08-01T04:02:17;95337.13;;;20.84;100.00
13314;BME280;6725;48.112;11.604;2022-08-01T04:04:43;95338.34;;;20.83;100.00
13314;BME280;6725;48.112;11.604;2022-08-01T04:07:32;95336.16;;;20.87;100.00
13314;BME280;6725;48.112;11.604;2022-08-01T04:09:58;95341.56;;;20.91;100.00
13314;BME280;6725;48.112;11.604;2022-08-01T04:12:24;95339.53;;;20.91;100.00
13314;BME280;6725;48.112;11.604;2022-08-01T04:14:49;95344.97;;;20.95;100.00
13314;BME280;6725;48.112;11.604;2022-08-01T04:17:16;95341.41;;;20.94;100.00
13314;BME280;6725;48.112;11.604;2022-08-01T04:19:41;95346.03;;;20.97;100.00
13314;BME280;6725;48.112;11.604;2022-08-01T04:22:08;95349.13;;;20.99;100.00
13314;BME280;6725;48.112;11.604;2022-08-01T04:24:35;95358.97;;;21.00;100.00
13314;BME280;6725;48.112;11.604;2022-08-01T04:27:04;95351.69;;;21.03;100.00
13314;BME280;6725;48.112;11.604;2022-08-01T04:29:32;95349.97;;;21.05;100.00
13314;BME280;6725;48.112;11.604;2022-08-01T04:31:59;95369.16;;;21.27;100.00
13314;BME280;6725;48.112;11.604;2022-08-01T04:34:27;95370.44;;;21.40;100.00
13314;BME280;6725;48.112;11.604;2022-08-01T04:36:55;95375.63;;;21.94;100.00
13314;BME280;6725;48.112;11.604;2022-08-01T04:39:23;95380.94;;;22.51;100.00
13314;BME280;6725;48.112;11.604;2022-08-01T04:41:54;95387.75;;;22.79;100.00
13314;BME280;6725;48.112;11.604;2022-08-01T04:44:24;95395.50;;;22.75;100.00
13314;BME280;6725;48.112;11.604;2022-08-01T04:46:50;95396.31;;;22.61;100.00
13314;BME280;6725;48.112;11.604;2022-08-01T04:49:19;95399.75;;;22.56;100.00
13314;BME280;6725;48.112;11.604;2022-08-01T04:51:55;95389.66;;;22.29;100.00
13314;BME280;6725;48.112;11.604;2022-08-01T04:54:34;95388.94;;;22.19;100.00
13314;BME280;6725;48.112;11.604;2022-08-01T04:57:03;95391.75;;;22.19;100.00
13314;BME280;6725;48.112;11.604;2022-08-01T04:59:33;95391.75;;;22.19;100.00
13314;BME280;6725;48.112;11.604;2022-08-01T05:02:07;95392.91;;;22.27;100.00
13314;BME280;6725;48.112;11.604;2022-08-01T05:04:32;95396.16;;;22.40;100.00
13314;BME280;6725;48.112;11.604;2022-08-01T05:06:58;95403.56;;;22.58;100.00
13314;BME280;6725;48.112;11.604;2022-08-01T05:09:24;95403.19;;;22.80;100.00
13314;BME280;6725;48.112;11.604;2022-08-01T05:11:49;95407.59;;;22.86;100.00
13314;BME280;6725;48.112;11.604;2022-08-01T05:14:14;95405.63;;;23.07;100.00
13314;BME280;6725;48.112;11.604;2022-08-01T05:16:40;95415.59;;;23.28;100.00
13314;BME280;6725;48.112;11.604;2022-08-01T05:19:07;95414.34;;;23.29;100.00
13314;BME280;6725;48.112;11.604;2022-08-01T05:21:33;95410.75;;;23.43;100.00
13314;BME280;6725;48.112;11.604;2022-08-01T05:23:58;95417.81;;;23.58;100.00
13314;BME280;6725;48.112;11.604;2022-08-01T05:26:24;95413.25;;;23.81;100.00
13314;BME280;6725;48.112;11.604;2022-08-01T05:28:49;95422.47;;;23.87;100.00
13314;BME280;6725;48.112;11.604;2022-08-01T05:31:14;95419.72;;;24.07;100.00
13314;BME280;6725;48.112;11.604;2022-08-01T05:33:40;95425.81;;;24.31;100.00
13314;BME280;6725;48.112;11.604;2022-08-01T05:36:05;95428.72;;;24.42;100.00
13314;BME280;6725;48.112;11.604;2022-08-01T05:38:31;95428.06;;;24.78;98.71
13314;BME280;6725;48.112;11.604;2022-08-01T05:40:56;95434.47;;;25.15;95.05
13314;BME280;6725;48.112;11.604;2022-08-01T05:43:21;95439.75;;;26.39;87.58
13314;BME280;6725;48.112;11.604;2022-08-01T05:45:47;95437.22;;;27.95;78.32
13314;BME280;6725;48.112;11.604;2022-08-01T05:48:12;95445.31;;;28.73;71.40
13314;BME280;6725;48.112;11.604;2022-08-01T05:50:38;95447.69;;;27.89;73.08
13314;BME280;6725;48.112;11.604;2022-08-01T05:53:03;95443.09;;;27.92;73.69
13314;BME280;6725;48.112;11.604;2022-08-01T05:55:29;95442.91;;;27.62;75.38
13314;BME280;6725;48.112;11.604;2022-08-01T05:57:54;95450.81;;;28.43;71.03
13314;BME280;6725;48.112;11.604;2022-08-01T06:00:20;95452.66;;;30.23;62.58
13314;BME280;6725;48.112;11.604;2022-08-01T06:02:45;95457.16;;;31.43;57.05
13314;BME280;6725;48.112;11.604;2022-08-01T06:05:11;95444.44;;;32.33;51.92
13314;BME280;6725;48.112;11.604;2022-08-01T06:07:36;95448.66;;;32.99;48.73
13314;BME280;6725;48.112;11.604;2022-08-01T06:10:03;95457.75;;;32.72;47.92
13314;BME280;6725;48.112;11.604;2022-08-01T06:12:32;95452.63;;;33.17;47.53
13314;BME280;6725;48.112;11.604;2022-08-01T06:14:57;95457.16;;;33.95;45.14
13314;BME280;6725;48.112;11.604;2022-08-01T06:17:23;95458.03;;;34.18;42.51
13314;BME280;6725;48.112;11.604;2022-08-01T06:19:48;95458.47;;;34.22;42.77
13314;BME280;6725;48.112;11.604;2022-08-01T06:22:13;95456.19;;;34.84;42.02
13314;BME280;6725;48.112;11.604;2022-08-01T06:24:39;95455.81;;;34.87;40.18
13314;BME280;6725;48.112;11.604;2022-08-01T06:27:04;95462.81;;;35.52;39.14
13314;BME280;6725;48.112;11.604;2022-08-01T06:29:30;95455.28;;;35.77;38.45
13314;BME280;6725;48.112;11.604;2022-08-01T06:31:56;95456.78;;;35.93;37.83
13314;BME280;6725;48.112;11.604;2022-08-01T06:34:22;95459.97;;;36.42;35.93
13314;BME280;6725;48.112;11.604;2022-08-01T06:36:48;95469.44;;;36.37;36.60
13314;BME280;6725;48.112;11.604;2022-08-01T06:39:13;95464.13;;;37.03;35.30
13314;BME280;6725;48.112;11.604;2022-08-01T06:41:38;95468.00;;;37.30;33.75
13314;BME280;6725;48.112;11.604;2022-08-01T06:44:07;95466.09;;;37.57;33.35
13314;BME280;6725;48.112;11.604;2022-08-01T06:46:32;95467.09;;;37.13;34.52
13314;BME280;6725;48.112;11.604;2022-08-01T06:48:57;95463.41;;;37.67;33.60
13314;BME280;6725;48.112;11.604;2022-08-01T06:51:23;95462.81;;;37.36;34.87
13314;BME280;6725;48.112;11.604;2022-08-01T06:53:48;95470.38;;;37.17;34.14
13314;BME280;6725;48.112;11.604;2022-08-01T06:56:14;95467.59;;;38.15;33.27
13314;BME280;6725;48.112;11.604;2022-08-01T06:58:39;95469.03;;;38.23;31.96
13314;BME280;6725;48.112;11.604;2022-08-01T07:01:05;95460.97;;;38.29;32.29
13314;BME280;6725;48.112;11.604;2022-08-01T07:03:33;95466.78;;;37.73;33.20
13314;BME280;6725;48.112;11.604;2022-08-01T07:05:58;95462.66;;;38.15;32.58
13314;BME280;6725;48.112;11.604;2022-08-01T07:08:24;95463.19;;;38.89;31.62
13314;BME280;6725;48.112;11.604;2022-08-01T07:10:49;95458.03;;;39.49;30.34
13314;BME280;6725;48.112;11.604;2022-08-01T07:13:14;95463.34;;;39.79;29.79
13314;BME280;6725;48.112;11.604;2022-08-01T07:15:45;95466.84;;;40.23;29.29
13314;BME280;6725;48.112;11.604;2022-08-01T07:18:11;95456.28;;;39.80;30.38
13314;BME280;6725;48.112;11.604;2022-08-01T07:20:37;95456.91;;;40.43;29.43
13314;BME280;6725;48.112;11.604;2022-08-01T07:23:02;95457.47;;;39.06;29.66
13314;BME280;6725;48.112;11.604;2022-08-01T07:25:28;95455.72;;;40.00;29.68
13314;BME280;6725;48.112;11.604;2022-08-01T07:27:53;95463.25;;;40.51;28.57
13314;BME280;6725;48.112;11.604;2022-08-01T07:30:19;95461.94;;;39.44;29.80
13314;BME280;6725;48.112;11.604;2022-08-01T07:32:44;95456.34;;;39.19;29.95
13314;BME280;6725;48.112;11.604;2022-08-01T07:35:09;95456.66;;;38.96;30.94
13314;BME280;6725;48.112;11.604;2022-08-01T07:37:35;95465.31;;;38.55;31.32
13314;BME280;6725;48.112;11.604;2022-08-01T07:40:00;95444.47;;;39.22;30.78
13314;BME280;6725;48.112;11.604;2022-08-01T07:42:26;95442.97;;;39.39;30.31
13314;BME280;6725;48.112;11.604;2022-08-01T07:44:52;95446.81;;;39.87;29.09
13314;BME280;6725;48.112;11.604;2022-08-01T07:47:23;95450.44;;;38.90;31.25
13314;BME280;6725;48.112;11.604;2022-08-01T07:49:49;95441.78;;;39.24;30.49
13314;BME280;6725;48.112;11.604;2022-08-01T07:52:14;95445.34;;;39.69;29.29
13314;BME280;6725;48.112;11.604;2022-08-01T07:54:39;95445.72;;;39.56;29.88
13314;BME280;6725;48.112;11.604;2022-08-01T07:57:05;95450.84;;;39.84;30.53
13314;BME280;6725;48.112;11.604;2022-08-01T07:59:30;95453.47;;;39.99;29.87
13314;BME280;6725;48.112;11.604;2022-08-01T08:01:56;95454.31;;;39.82;29.84
13314;BME280;6725;48.112;11.604;2022-08-01T08:04:21;95453.31;;;40.52;29.02
13314;BME280;6725;48.112;11.604;2022-08-01T08:06:47;95450.75;;;40.56;29.04
13314;BME280;6725;48.112;11.604;2022-08-01T08:09:13;95455.00;;;41.12;28.04
13314;BME280;6725;48.112;11.604;2022-08-01T08:11:38;95450.00;;;40.65;28.90
13314;BME280;6725;48.112;11.604;2022-08-01T08:14:03;95444.88;;;40.73;28.64
13314;BME280;6725;48.112;11.604;2022-08-01T08:16:29;95447.47;;;41.07;28.48
13314;BME280;6725;48.112;11.604;2022-08-01T08:18:54;95446.41;;;41.12;28.08
13314;BME280;6725;48.112;11.604;2022-08-01T08:21:19;95445.75;;;40.47;28.97
13314;BME280;6725;48.112;11.604;2022-08-01T08:23:45;95449.75;;;40.15;29.25
13314;BME280;6725;48.112;11.604;2022-08-01T08:26:29;95453.41;;;39.80;30.07
13314;BME280;6725;48.112;11.604;2022-08-01T08:28:55;95448.81;;;40.68;28.79
13314;BME280;6725;48.112;11.604;2022-08-01T08:31:20;95446.03;;;40.32;28.84
13314;BME280;6725;48.112;11.604;2022-08-01T08:33:45;95442.16;;;40.94;28.19
13314;BME280;6725;48.112;11.604;2022-08-01T08:36:11;95442.59;;;40.43;29.01
13314;BME280;6725;48.112;11.604;2022-08-01T08:38:38;95442.44;;;41.17;27.76
13314;BME280;6725;48.112;11.604;2022-08-01T08:41:03;95440.72;;;41.61;27.29
13314;BME280;6725;48.112;11.604;2022-08-01T08:43:29;95434.91;;;41.71;27.39
13314;BME280;6725;48.112;11.604;2022-08-01T08:45:55;95441.25;;;41.20;27.40
13314;BME280;6725;48.112;11.604;2022-08-01T08:48:21;95443.09;;;40.13;28.71
13314;BME280;6725;48.112;11.604;2022-08-01T08:50:47;95434.47;;;39.94;29.18
13314;BME280;6725;48.112;11.604;2022-08-01T08:53:13;95432.19;;;40.57;28.64
13314;BME280;6725;48.112;11.604;2022-08-01T08:55:42;95441.97;;;40.35;29.37
13314;BME280;6725;48.112;11.604;2022-08-01T08:58:14;95443.06;;;40.87;28.46
13314;BME280;6725;48.112;11.604;2022-08-01T09:00:42;95438.34;;;41.29;27.87
13314;BME280;6725;48.112;11.604;2022-08-01T09:03:08;95435.75;;;41.43;28.14
13314;BME280;6725;48.112;11.604;2022-08-01T09:05:33;95438.03;;;42.25;26.13
13314;BME280;6725;48.112;11.604;2022-08-01T09:07:59;95438.63;;;41.33;26.79
13314;BME280;6725;48.112;11.604;2022-08-01T09:10:25;95442.78;;;40.83;26.85
13314;BME280;6725;48.112;11.604;2022-08-01T09:13:13;95433.72;;;40.77;27.29
13314;BME280;6725;48.112;11.604;2022-08-01T09:15:40;95442.91;;;40.66;28.12
13314;BME280;6725;48.112;11.604;2022-08-01T09:18:06;95437.00;;;41.21;28.01
13314;BME280;6725;48.112;11.604;2022-08-01T09:20:32;95426.34;;;41.61;26.77
13314;BME280;6725;48.112;11.604;2022-08-01T09:23:00;95431.97;;;41.50;26.81
13314;BME280;6725;48.112;11.604;2022-08-01T09:25:25;95439.41;;;41.34;26.77
13314;BME280;6725;48.112;11.604;2022-08-01T09:28:04;95439.75;;;41.19;26.41
13314;BME280;6725;48.112;11.604;2022-08-01T09:30:37;95437.44;;;40.41;27.81
13314;BME280;6725;48.112;11.604;2022-08-01T09:33:05;95441.88;;;41.09;27.46
13314;BME280;6725;48.112;11.604;2022-08-01T09:35:35;95431.78;;;40.15;28.32
13314;BME280;6725;48.112;11.604;2022-08-01T09:38:19;95433.56;;;40.84;28.02
13314;BME280;6725;48.112;11.604;2022-08-01T09:40:53;95428.59;;;41.04;26.72
13314;BME280;6725;48.112;11.604;2022-08-01T09:43:20;95430.69;;;41.13;26.74
13314;BME280;6725;48.112;11.604;2022-08-01T09:45:46;95433.56;;;41.72;25.73
13314;BME280;6725;48.112;11.604;2022-08-01T09:48:12;95429.19;;;41.71;26.09
13314;BME280;6725;48.112;11.604;2022-08-01T09:50:46;95430.00;;;41.43;26.38
13314;BME280;6725;48.112;11.604;2022-08-01T09:53:12;95426.53;;;41.54;26.11
13314;BME280;6725;48.112;11.604;2022-08-01T09:55:39;95420.44;;;42.00;25.41
13314;BME280;6725;48.112;11.604;2022-08-01T09:58:05;95419.22;;;41.13;26.11
13314;BME280;6725;48.112;11.604;2022-08-01T10:00:31;95420.31;;;42.28;25.82
13314;BME280;6725;48.112;11.604;2022-08-01T10:02:57;95419.69;;;41.00;26.82
13314;BME280;6725;48.112;11.604;2022-08-01T10:05:31;95417.25;;;40.58;26.83
13314;BME280;6725;48.112;11.604;2022-08-01T10:07:59;95406.88;;;40.63;27.62
13314;BME280;6725;48.112;11.604;2022-08-01T10:10:25;95407.81;;;40.01;27.92
13314;BME280;6725;48.112;11.604;2022-08-01T10:12:51;95411.88;;;39.98;28.61
13314;BME280;6725;48.112;11.604;2022-08-01T10:15:17;95404.25;;;41.24;27.22
13314;BME280;6725;48.112;11.604;2022-08-01T10:17:54;95410.38;;;41.49;26.19
13314;BME280;6725;48.112;11.604;2022-08-01T10:20:20;95411.97;;;40.55;27.50
13314;BME280;6725;48.112;11.604;2022-08-01T10:22:46;95407.28;;;40.31;28.10
13314;BME280;6725;48.112;11.604;2022-08-01T10:25:13;95409.56;;;38.97;29.47
13314;BME280;6725;48.112;11.604;2022-08-01T10:27:42;95400.91;;;39.68;29.17
13314;BME280;6725;48.112;11.604;2022-08-01T10:30:11;95404.88;;;38.07;31.04
13314;BME280;6725;48.112;11.604;2022-08-01T10:32:37;95403.16;;;38.89;30.34
13314;BME280;6725;48.112;11.604;2022-08-01T10:35:06;95397.56;;;39.35;29.58
13314;BME280;6725;48.112;11.604;2022-08-01T10:37:33;95402.72;;;39.73;28.07
13314;BME280;6725;48.112;11.604;2022-08-01T10:39:59;95396.94;;;39.54;29.33
13314;BME280;6725;48.112;11.604;2022-08-01T10:42:25;95395.63;;;38.84;29.91
13314;BME280;6725;48.112;11.604;2022-08-01T10:44:52;95399.28;;;39.38;29.58
13314;BME280;6725;48.112;11.604;2022-08-01T10:47:27;95386.41;;;39.92;28.50
13314;BME280;6725;48.112;11.604;2022-08-01T10:50:13;95379.03;;;39.26;29.08
13314;BME280;6725;48.112;11.604;2022-08-01T10:52:41;95390.09;;;38.35;30.58
13314;BME280;6725;48.112;11.604;2022-08-01T10:55:07;95380.84;;;38.44;30.14
13314;BME280;6725;48.112;11.604;2022-08-01T10:57:46;95381.47;;;39.66;28.78
13314;BME280;6725;48.112;11.604;2022-08-01T11:00:20;95385.66;;;40.01;28.52
13314;BME280;6725;48.112;11.604;2022-08-01T11:03:00;95382.78;;;39.92;28.24
13314;BME280;6725;48.112;11.604;2022-08-01T11:05:31;95383.38;;;40.00;28.92
13314;BME280;6725;48.112;11.604;2022-08-01T11:07:59;95379.00;;;38.73;30.20
13314;BME280;6725;48.112;11.604;2022-08-01T11:13:03;95383.03;;;38.19;31.22
13314;BME280;6725;48.112;11.604;2022-08-01T11:15:33;95368.97;;;39.35;29.47
13314;BME280;6725;48.112;11.604;2022-08-01T11:18:00;95365.66;;;39.02;30.79
13314;BME280;6725;48.112;11.604;2022-08-01T11:20:32;95364.75;;;38.22;31.28
13314;BME280;6725;48.112;11.604;2022-08-01T11:31:24;95356.50;;;38.43;30.14
13314;BME280;6725;48.112;11.604;2022-08-01T11:46:19;95360.88;;;37.44;31.88
13314;BME280;6725;48.112;11.604;2022-08-01T11:48:45;95357.16;;;37.34;31.31
13314;BME280;6725;48.112;11.604;2022-08-01T11:51:15;95361.31;;;36.77;31.96
13314;BME280;6725;48.112;11.604;2022-08-01T11:53:47;95360.66;;;35.54;34.42
13314;BME280;6725;48.112;11.604;2022-08-01T11:56:15;95353.63;;;35.47;35.15
13314;BME280;6725;48.112;11.604;2022-08-01T11:58:41;95352.28;;;35.26;36.09
13314;BME280;6725;48.112;11.604;2022-08-01T12:01:12;95350.25;;;34.61;35.24
13314;BME280;6725;48.112;11.604;2022-08-01T12:03:37;95351.25;;;34.71;34.87
13314;BME280;6725;48.112;11.604;2022-08-01T12:06:03;95343.13;;;34.32;36.50
13314;BME280;6725;48.112;11.604;2022-08-01T12:08:30;95347.53;;;34.33;37.03
13314;BME280;6725;48.112;11.604;2022-08-01T12:10:58;95345.56;;;34.28;37.33
13314;BME280;6725;48.112;11.604;2022-08-01T12:13:24;95353.78;;;34.39;36.48
13314;BME280;6725;48.112;11.604;2022-08-01T12:15:50;95342.66;;;34.13;37.23
13314;BME280;6725;48.112;11.604;2022-08-01T12:18:16;95338.59;;;33.93;37.32
13314;BME280;6725;48.112;11.604;2022-08-01T12:20:43;95339.44;;;33.80;37.58
13314;BME280;6725;48.112;11.604;2022-08-01T12:23:14;95331.38;;;33.84;37.57
13314;BME280;6725;48.112;11.604;2022-08-01T12:25:40;95331.66;;;34.02;36.71
13314;BME280;6725;48.112;11.604;2022-08-01T12:28:07;95333.66;;;34.29;36.48
13314;BME280;6725;48.112;11.604;2022-08-01T12:30:35;95329.13;;;33.62;35.78
13314;BME280;6725;48.112;11.604;2022-08-01T12:33:04;95321.63;;;33.72;36.87
13314;BME280;6725;48.112;11.604;2022-08-01T12:35:31;95324.50;;;33.44;37.70
13314;BME280;6725;48.112;11.604;2022-08-01T12:38:03;95323.88;;;33.18;37.82
13314;BME280;6725;48.112;11.604;2022-08-01T12:40:31;95319.22;;;33.48;37.01
13314;BME280;6725;48.112;11.604;2022-08-01T12:43:04;95317.06;;;33.69;37.17
13314;BME280;6725;48.112;11.604;2022-08-01T12:45:34;95318.19;;;33.95;36.33
13314;BME280;6725;48.112;11.604;2022-08-01T12:48:00;95294.28;;;34.18;35.26
13314;BME280;6725;48.112;11.604;2022-08-01T12:50:30;95306.41;;;34.19;33.78
13314;BME280;6725;48.112;11.604;2022-08-01T12:52:57;95309.00;;;34.09;34.46
13314;BME280;6725;48.112;11.604;2022-08-01T12:55:24;95307.97;;;33.92;33.81
13314;BME280;6725;48.112;11.604;2022-08-01T12:58:06;95305.34;;;34.01;34.16
13314;BME280;6725;48.112;11.604;2022-08-01T13:00:33;95309.06;;;34.32;33.27
13314;BME280;6725;48.112;11.604;2022-08-01T13:03:08;95296.56;;;34.20;32.96
13314;BME280;6725;48.112;11.604;2022-08-01T13:05:47;95295.00;;;34.04;34.30
13314;BME280;6725;48.112;11.604;2022-08-01T13:08:34;95305.91;;;33.92;34.58
13314;BME280;6725;48.112;11.604;2022-08-01T13:11:07;95296.91;;;34.09;35.38
13314;BME280;6725;48.112;11.604;2022-08-01T13:13:49;95296.44;;;33.90;35.58
13314;BME280;6725;48.112;11.604;2022-08-01T13:16:21;95294.56;;;33.92;35.62
13314;BME280;6725;48.112;11.604;2022-08-01T13:18:54;95299.84;;;33.96;36.17
13314;BME280;6725;48.112;11.604;2022-08-01T13:21:26;95294.78;;;33.73;34.79
13314;BME280;6725;48.112;11.604;2022-08-01T13:24:09;95293.09;;;33.42;34.84
13314;BME280;6725;48.112;11.604;2022-08-01T13:26:46;95293.81;;;33.35;35.14
13314;BME280;6725;48.112;11.604;2022-08-01T13:29:20;95306.97;;;32.84;36.92